Flight Track Log - Related Links

Times and Time Zones

All times are in EDT time to prevent confusion due to time zone crossing. See the HA312 flight status page for this flight to view local times or setup timezone preferences in your user account.

Time Position Orientation Groundspeed Altitude Reporting Facility
EDT Latitude Longitude Course Direction KTS MPH feet Rate Location/Type
Thu 09:40:07 PM 49.1667 -123.2333 334° Northwest 130 150 1,400  Level Vancouver Center
Thu 09:41:07 PM 49.1833 -123.2833 297° West 140 161 2,400 1,150 Climbing Vancouver Center
Thu 09:42:07 PM 49.1833 -123.3333 270° West 140 161 3,700 1,150 Climbing Vancouver Center
Thu 09:43:07 PM 49.2000 -123.3833 297° West 140 161 4,700 1,100 Climbing Vancouver Center
Thu 09:44:00 PM 49.5450 -123.4037 327° Northwest  Level Estimated
Thu 09:44:07 PM 49.2333 -123.4333 316° Northwest 140 161 5,900  Level Vancouver Center
Thu 09:45:00 PM 49.5588 -123.5358 334° Northwest  Level FlightAware Approximate
Thu 09:45:07 PM 49.2500 -123.5000 291° West 140 161 7,000  Level Vancouver Center
Thu 09:46:07 PM 49.2833 -123.5500 316° Northwest 150 173 8,100 1,050 Climbing Vancouver Center
Thu 09:47:07 PM 49.3167 -123.5667 342° North 150 173 9,100 1,000 Climbing Vancouver Center
Thu 09:48:07 PM 49.3500 -123.6000 327° Northwest 150 173 10,100 1,000 Climbing Vancouver Center
Thu 09:49:07 PM 49.3833 -123.6500 316° Northwest 150 173 11,100 950 Climbing Vancouver Center
Thu 09:50:07 PM 49.4167 -123.6667 342° North 150 173 12,000 950 Climbing Vancouver Center
Thu 09:51:07 PM 49.4667 -123.7167 327° Northwest 160 184 13,000 900 Climbing Vancouver Center
Thu 09:52:07 PM 49.5000 -123.7500 327° Northwest 170 196 13,800 850 Climbing Vancouver Center
Thu 09:53:07 PM 49.5333 -123.8000 316° Northwest 170 196 14,700 800 Climbing Vancouver Center
Thu 09:54:07 PM 49.5833 -123.8500 327° Northwest 180 207 15,400 750 Climbing Vancouver Center
Thu 09:55:07 PM 49.6167 -123.8833 327° Northwest 180 207 16,200 850 Climbing Vancouver Center
Thu 09:56:07 PM 49.6500 -123.9500 308° West 180 207 17,100 850 Climbing Vancouver Center
Thu 09:57:07 PM 49.6833 -124.0000 316° Northwest 180 207 17,900 800 Climbing Vancouver Center
Thu 09:58:07 PM 49.7167 -124.0500 316° Northwest 170 196 18,700 700 Climbing Vancouver Center
Thu 09:59:07 PM 49.7333 -124.1167 291° West 170 196 19,300 600 Climbing Vancouver Center
Thu 10:00:07 PM 49.7833 -124.1667 327° Northwest 170 196 19,900 550 Climbing Vancouver Center
Thu 10:01:07 PM 49.8167 -124.1833 342° North 180 207 20,400 550 Climbing Vancouver Center
Thu 10:02:07 PM 49.8667 -124.2167 337° Northwest 180 207 21,000 500 Climbing Vancouver Center
Thu 10:03:07 PM 49.9167 -124.2667 327° Northwest 180 207 21,400 400 Climbing Vancouver Center
Thu 10:04:07 PM 49.9500 -124.3000 327° Northwest 180 207 21,800 300 Climbing Vancouver Center
Thu 10:05:07 PM 50.0000 -124.3500 327° Northwest 190 219 22,000 100 Climbing Vancouver Center
Thu 10:06:07 PM 50.0500 -124.4000 327° Northwest 200 230 22,000  Level Vancouver Center
Thu 10:07:07 PM 50.1000 -124.4500 327° Northwest 220 253 22,000  Level Vancouver Center
Thu 10:08:07 PM 50.1500 -124.5000 327° Northwest 230 265 22,000  Level Vancouver Center
Thu 10:09:07 PM 50.2000 -124.5500 327° Northwest 240 276 22,000  Level Vancouver Center
Thu 10:10:07 PM 50.2667 -124.6167 327° Northwest 240 276 22,000  Level Vancouver Center
Thu 10:11:07 PM 50.3167 -124.6667 327° Northwest 240 276 22,000  Level Vancouver Center
Thu 10:12:07 PM 50.3833 -124.7333 327° Northwest 240 276 22,000  Level Vancouver Center
Thu 10:13:07 PM 50.4333 -124.7667 337° Northwest 240 276 22,000  Level Vancouver Center
Thu 10:14:07 PM 50.5000 -124.8000 342° North 240 276 22,000  Level Vancouver Center
Thu 10:15:07 PM 50.5667 -124.8167 351° North 240 276 22,000  Level Vancouver Center
Thu 10:16:07 PM 50.6333 -124.8500 342° North 240 276 22,000  Level Vancouver Center
Thu 10:17:07 PM 50.7000 -124.8833 342° North 230 265 22,000  Level Vancouver Center
Thu 10:18:07 PM 50.7500 -124.9000 348° North 240 276 22,000  Level Vancouver Center
Thu 10:19:07 PM 50.8167 -124.9333 342° North 230 265 22,000  Level Vancouver Center
Thu 10:20:07 PM 50.8833 -124.9667 342° North 230 265 22,000  Level Vancouver Center
Thu 10:21:07 PM 50.9500 -124.9833 351° North 240 276 22,000  Level Vancouver Center
Thu 10:22:07 PM 51.0000 -125.0167 337° Northwest 230 265 22,000  Level Vancouver Center
Thu 10:23:07 PM 51.0667 -125.0500 343° North 230 265 22,000  Level Vancouver Center
Thu 10:24:07 PM 51.1333 -125.0833 343° North 230 265 22,000  Level Vancouver Center
Thu 10:25:07 PM 51.2000 -125.1000 351° North 230 265 22,000  Level Vancouver Center
Thu 10:26:07 PM 51.2500 -125.1333 337° Northwest 240 276 22,000  Level Vancouver Center
Thu 10:27:07 PM 51.3167 -125.1667 343° North 230 265 22,000  Level Vancouver Center
Thu 10:28:07 PM 51.3833 -125.1833 351° North 230 265 22,000  Level Vancouver Center
Thu 10:29:07 PM 51.4500 -125.2167 343° North 230 265 22,000  Level Vancouver Center
Thu 10:30:07 PM 51.5000 -125.2500 337° Northwest 230 265 22,000  Level Vancouver Center
Thu 10:31:07 PM 51.5667 -125.2833 343° North 230 265 22,000  Level Vancouver Center
Thu 10:32:07 PM 51.6333 -125.3000 351° North 230 265 22,000  Level Vancouver Center
Thu 10:33:07 PM 51.6833 -125.3333 338° Northwest 230 265 22,000  Level Vancouver Center
Thu 10:34:07 PM 51.7500 -125.3667 343° North 220 253 22,000  Level Vancouver Center
Thu 10:35:07 PM 51.8167 -125.3833 351° North 230 265 22,000  Level Vancouver Center
Thu 10:36:07 PM 51.8667 -125.4167 338° Northwest 230 265 22,000  Level Vancouver Center
Thu 10:37:07 PM 51.9333 -125.4500 343° North 230 265 22,000  Level Vancouver Center
Thu 10:38:07 PM 52.0000 -125.4833 343° North 230 265 22,000  Level Vancouver Center
Thu 10:39:07 PM 52.0500 -125.4833 360° North 230 265 22,000  Level Vancouver Center
Thu 10:40:07 PM 52.1167 -125.5167 343° North 230 265 22,000  Level Vancouver Center
Thu 10:41:07 PM 52.1833 -125.5333 351° North 230 265 22,000  Level Vancouver Center
Thu 10:42:07 PM 52.2333 -125.5667 338° Northwest 230 265 22,000  Level Vancouver Center
Thu 10:43:07 PM 52.3000 -125.6000 343° North 230 265 22,000  Level Vancouver Center
Thu 10:44:07 PM 52.3667 -125.6333 343° North 230 265 22,000  Level Vancouver Center
Thu 10:45:07 PM 52.4333 -125.6667 343° North 230 265 22,000  Level Vancouver Center
Thu 10:46:07 PM 52.4833 -125.6833 349° North 230 265 22,000  Level Vancouver Center
Thu 10:47:07 PM 52.5500 -125.7167 343° North 230 265 22,000  Level Vancouver Center
Thu 10:48:07 PM 52.6167 -125.7500 343° North 230 265 22,000  Level Vancouver Center
Thu 10:49:07 PM 52.6667 -125.7833 338° Northwest 220 253 22,000  Level Vancouver Center
Thu 10:50:07 PM 52.7333 -125.8167 343° North 230 265 22,000  Level Vancouver Center
Thu 10:51:07 PM 52.7833 -125.8333 349° North 230 265 22,000  Level Vancouver Center
Thu 10:52:07 PM 52.8500 -125.8667 343° North 230 265 22,000  Level Vancouver Center
Thu 10:53:07 PM 52.9167 -125.9000 343° North 230 265 22,000  Level Vancouver Center
Thu 10:54:07 PM 52.9833 -125.9333 343° North 230 265 22,000  Level Vancouver Center
Thu 10:55:07 PM 53.0333 -125.9667 338° Northwest 230 265 22,000  Level Vancouver Center
Thu 10:56:07 PM 53.1000 -126.0000 343° North 230 265 22,000  Level Vancouver Center
Thu 10:57:07 PM 53.1500 -126.0167 349° North 230 265 22,000  Level Vancouver Center
Thu 10:58:07 PM 53.2167 -126.0500 343° North 230 265 22,000  Level Vancouver Center
Thu 10:59:07 PM 53.2667 -126.0833 338° Northwest 230 265 22,000  Level Vancouver Center
Thu 11:00:07 PM 53.3333 -126.1167 343° North 230 265 22,000 -150 Level Vancouver Center
Thu 11:01:07 PM 53.3833 -126.1833 322° Northwest 230 265 21,700 -350 Descending Vancouver Center
Thu 11:02:07 PM 53.4500 -126.2000 352° North 240 276 21,300 -400 Descending Vancouver Center
Thu 11:03:07 PM 53.5167 -126.2667 329° Northwest 250 288 20,900 -500 Descending Vancouver Center
Thu 11:04:07 PM 53.5833 -126.3333 329° Northwest 260 299 20,300 -650 Descending Vancouver Center
Thu 11:05:07 PM 53.6500 -126.3833 336° Northwest 260 299 19,600 -700 Descending Vancouver Center
Thu 11:06:07 PM 53.7167 -126.4500 329° Northwest 270 311 18,900 -700 Descending Vancouver Center
Thu 11:07:07 PM 53.7833 -126.5167 329° Northwest 280 322 18,200 -600 Descending Vancouver Center
Thu 11:08:07 PM 53.8500 -126.5667 336° Northwest 270 311 17,700 -600 Descending Vancouver Center
Thu 11:09:07 PM 53.9167 -126.6000 344° North 270 311 17,000 -287 Descending Vancouver Center
Thu 11:14:02 PM 54.2667 -126.6167 340° North 220 253 16,000 -456 Descending Vancouver Center
Thu 11:15:02 PM 54.3500 -126.6333 353° North 270 311 14,300 -1,550 Descending Vancouver Center
Thu 11:16:02 PM 54.4167 -126.6667 344° North 300 345 12,900 -1,400 Descending Vancouver Center
Thu 11:18:00 PM 54.4149 -126.9104 340° North  Level FlightAware Approximate
Thu 11:18:00 PM 54.5116 -126.7856 324° Northwest  Level Estimated
Thu 11:19:00 PM 54.4709 -126.9458 340° North  Level FlightAware Approximate
Thu 11:25:00 PM 54.8247 -127.1828 339° North  Level Estimated
Thu 11:26:00 PM 54.8247 -127.1828 North  Level Estimated
Thu 11:27:00 PM 54.8247 -127.1828 North  Level Estimated
Thu 11:28:00 PM 54.8247 -127.1828 North  Level Estimated
Thu 11:29:00 PM 54.8247 -127.1828 North  Level Estimated

Login

Don't have an account? Register now (free) for customized features, flight alerts, and more!